createdAt,value
2022-07-27T00:00:59.807Z,0.00
2022-07-27T00:01:59.727Z,0.00
2022-07-27T00:02:59.799Z,0.00
2022-07-27T00:03:59.745Z,0.00
2022-07-27T00:04:59.637Z,0.00
2022-07-27T00:05:59.611Z,0.00
2022-07-27T00:06:59.579Z,0.00
2022-07-27T00:07:59.560Z,0.00
2022-07-27T00:08:59.605Z,0.00
2022-07-27T00:09:59.506Z,0.00
2022-07-27T00:10:59.457Z,0.00
2022-07-27T00:11:59.446Z,0.00
2022-07-27T00:12:59.411Z,0.00
2022-07-27T00:13:59.368Z,0.00
2022-07-27T00:14:59.413Z,0.00
2022-07-27T00:15:59.334Z,0.00
2022-07-27T00:16:59.278Z,0.00
2022-07-27T00:17:59.250Z,0.00
2022-07-27T00:18:59.224Z,0.00
2022-07-27T00:19:59.189Z,0.00
2022-07-27T00:20:59.225Z,0.00
2022-07-27T00:21:59.129Z,0.00
2022-07-27T00:22:59.094Z,0.00
2022-07-27T00:23:59.069Z,0.00
2022-07-27T00:24:59.034Z,0.00
2022-07-27T00:25:59.004Z,0.00
2022-07-27T00:26:59.089Z,0.00
2022-07-27T00:27:58.952Z,0.00
2022-07-27T00:28:58.911Z,0.00
2022-07-27T00:29:58.885Z,0.00
2022-07-27T00:30:58.907Z,0.00
2022-07-27T00:31:58.924Z,0.00
2022-07-27T00:32:58.841Z,0.00
2022-07-27T00:33:58.765Z,0.00
2022-07-27T00:34:58.737Z,0.00
2022-07-27T00:35:58.707Z,0.00
2022-07-27T00:36:58.724Z,0.00
2022-07-27T00:37:58.689Z,0.00
2022-07-27T00:38:58.619Z,0.00
2022-07-27T00:39:58.600Z,0.00
2022-07-27T00:40:58.564Z,0.00
2022-07-27T00:41:58.523Z,0.00
2022-07-27T00:42:58.566Z,0.00
2022-07-27T00:43:58.465Z,0.00
2022-07-27T00:44:58.432Z,0.00
2022-07-27T00:45:58.402Z,0.00
2022-07-27T00:46:58.446Z,0.00
2022-07-27T00:47:58.334Z,0.00
2022-07-27T00:48:58.425Z,0.00
2022-07-27T00:49:58.332Z,0.00
2022-07-27T00:50:58.241Z,0.00
2022-07-27T00:51:58.217Z,0.00
2022-07-27T00:52:58.185Z,0.00
2022-07-27T00:53:58.158Z,0.00
2022-07-27T00:54:58.189Z,0.00
2022-07-27T00:55:58.119Z,0.00
2022-07-27T00:56:58.069Z,0.00
2022-07-27T00:57:59.266Z,0.00
2022-07-27T00:58:58.008Z,0.00
2022-07-27T00:59:57.970Z,0.00
2022-07-27T01:00:58.011Z,0.00
2022-07-27T01:01:58.043Z,0.00
2022-07-27T01:02:58.092Z,0.00
2022-07-27T01:03:57.849Z,0.00
2022-07-27T01:04:57.822Z,0.00
2022-07-27T01:05:57.791Z,0.00
2022-07-27T01:06:57.838Z,0.00
2022-07-27T01:07:57.729Z,0.00
2022-07-27T01:08:57.705Z,0.00
2022-07-27T01:09:57.670Z,0.00
2022-07-27T01:10:57.643Z,0.00
2022-07-27T01:11:57.686Z,0.00
2022-07-27T01:12:57.576Z,0.00
2022-07-27T01:13:57.571Z,0.00
2022-07-27T01:14:57.513Z,0.00
2022-07-27T01:15:57.559Z,0.00
2022-07-27T01:16:57.516Z,0.00
2022-07-27T01:17:57.506Z,0.00
2022-07-27T01:18:57.392Z,0.00
2022-07-27T01:19:57.362Z,0.00
2022-07-27T01:20:57.327Z,0.00
2022-07-27T01:21:57.304Z,0.00
2022-07-27T01:22:57.358Z,0.00
2022-07-27T01:23:57.237Z,0.00
2022-07-27T01:24:57.212Z,0.00
2022-07-27T01:25:57.178Z,0.00
2022-07-27T01:26:57.146Z,0.00
2022-07-27T01:27:57.121Z,0.00
2022-07-27T01:28:57.157Z,0.00
2022-07-27T01:29:57.052Z,0.00
2022-07-27T01:30:57.156Z,0.00
2022-07-27T01:31:56.991Z,0.00
2022-07-27T01:32:56.962Z,0.00
2022-07-27T01:33:56.984Z,0.00
2022-07-27T01:34:56.898Z,0.00
2022-07-27T01:35:56.919Z,0.00
2022-07-27T01:36:56.833Z,0.00
2022-07-27T01:37:56.803Z,0.00
2022-07-27T01:38:56.840Z,0.00
2022-07-27T01:39:56.745Z,0.00
2022-07-27T01:40:56.750Z,0.00
2022-07-27T01:41:56.683Z,0.00
2022-07-27T01:42:56.659Z,0.00
2022-07-27T01:43:56.623Z,0.00
2022-07-27T01:44:56.654Z,0.00
2022-07-27T01:45:56.603Z,0.00
2022-07-27T01:46:56.550Z,0.00
2022-07-27T01:47:56.508Z,0.00
2022-07-27T01:48:56.645Z,0.00
2022-07-27T01:49:56.437Z,0.00
2022-07-27T01:50:56.402Z,0.00
2022-07-27T01:51:56.369Z,0.00
2022-07-27T01:52:56.344Z,0.00
2022-07-27T01:53:56.328Z,0.00
2022-07-27T01:54:56.335Z,0.00
2022-07-27T01:55:56.252Z,0.00
2022-07-27T01:56:56.214Z,0.00
2022-07-27T01:57:56.181Z,0.00
2022-07-27T01:58:56.152Z,0.00
2022-07-27T01:59:56.180Z,0.00
2022-07-27T02:00:56.118Z,0.00
2022-07-27T02:01:56.105Z,0.00
2022-07-27T02:02:56.028Z,0.00
2022-07-27T02:03:56.001Z,0.00
2022-07-27T02:04:56.028Z,0.00
2022-07-27T02:05:55.987Z,0.00
2022-07-27T02:06:55.903Z,0.00
2022-07-27T02:07:55.879Z,0.00
2022-07-27T02:08:55.841Z,0.00
2022-07-27T02:09:55.812Z,0.00
2022-07-27T02:10:55.850Z,0.00
2022-07-27T02:11:55.747Z,0.00
2022-07-27T02:12:55.714Z,0.00
2022-07-27T02:13:55.684Z,0.00
2022-07-27T02:14:55.652Z,0.00
2022-07-27T02:15:55.651Z,0.00
2022-07-27T02:16:55.673Z,0.00
2022-07-27T02:17:55.560Z,0.00
2022-07-27T02:18:55.529Z,0.00
2022-07-27T02:19:55.501Z,0.00
2022-07-27T02:20:55.488Z,0.00
2022-07-27T02:21:55.434Z,0.00
2022-07-27T02:22:55.473Z,0.00
2022-07-27T02:23:55.376Z,0.00
2022-07-27T02:24:55.340Z,0.00
2022-07-27T02:25:55.310Z,0.00
2022-07-27T02:26:55.281Z,0.00
2022-07-27T02:27:55.246Z,0.00
2022-07-27T02:28:55.312Z,0.00
2022-07-27T02:29:55.184Z,0.00
2022-07-27T02:30:55.154Z,0.00
2022-07-27T02:31:55.169Z,0.00
2022-07-27T02:32:55.134Z,0.00
2022-07-27T02:33:55.061Z,0.00
2022-07-27T02:34:55.096Z,0.00
2022-07-27T02:35:54.999Z,0.00
2022-07-27T02:36:54.969Z,0.00
2022-07-27T02:37:54.929Z,0.00
2022-07-27T02:38:54.904Z,0.00
2022-07-27T02:39:54.869Z,0.00
2022-07-27T02:40:54.914Z,0.00
2022-07-27T02:41:54.807Z,0.00
2022-07-27T02:42:54.778Z,0.00
2022-07-27T02:43:54.742Z,0.00
2022-07-27T02:44:54.710Z,0.00
2022-07-27T02:45:54.721Z,0.00
2022-07-27T02:46:54.717Z,0.00
2022-07-27T02:47:54.613Z,0.00
2022-07-27T02:48:54.650Z,0.00
2022-07-27T02:49:54.558Z,0.00
2022-07-27T02:50:54.521Z,0.00
2022-07-27T02:51:54.485Z,0.00
2022-07-27T02:52:54.516Z,0.00
2022-07-27T02:53:54.427Z,0.00
2022-07-27T02:54:54.417Z,0.00
2022-07-27T02:55:58.124Z,0.00
2022-07-27T02:56:54.332Z,0.00
2022-07-27T02:57:54.354Z,0.00
2022-07-27T02:58:54.324Z,0.00
2022-07-27T02:59:54.231Z,0.00
2022-07-27T03:00:58.353Z,0.00
2022-07-27T03:01:54.244Z,0.00
2022-07-27T03:02:54.147Z,0.00
2022-07-27T03:03:54.241Z,5.63
2022-07-27T03:04:54.078Z,5.63
2022-07-27T03:05:54.050Z,5.63
2022-07-27T03:06:54.018Z,5.63
2022-07-27T03:07:54.626Z,5.63
2022-07-27T03:08:53.949Z,5.63
2022-07-27T03:09:54.305Z,5.63
2022-07-27T03:10:53.886Z,5.63
2022-07-27T03:11:53.854Z,5.63
2022-07-27T03:12:53.826Z,5.63
2022-07-27T03:13:53.792Z,5.63
2022-07-27T03:14:53.826Z,5.63
2022-07-27T03:15:53.880Z,5.63
2022-07-27T03:16:53.739Z,5.63
2022-07-27T03:17:53.688Z,11.25
2022-07-27T03:18:53.636Z,11.25
2022-07-27T03:19:53.688Z,11.25
2022-07-27T03:20:53.573Z,11.25
2022-07-27T03:21:53.542Z,11.25
2022-07-27T03:22:53.508Z,11.25
2022-07-27T03:23:53.473Z,16.88
2022-07-27T03:24:53.441Z,16.88
2022-07-27T03:25:53.467Z,16.88
2022-07-27T03:26:53.385Z,16.88
2022-07-27T03:27:53.356Z,16.88
2022-07-27T03:28:53.317Z,22.50
2022-07-27T03:29:53.365Z,22.50
2022-07-27T03:30:55.796Z,22.50
2022-07-27T03:31:53.251Z,28.13
2022-07-27T03:32:53.192Z,28.13
2022-07-27T03:33:53.184Z,28.13
2022-07-27T03:34:53.131Z,33.75
2022-07-27T03:35:53.096Z,33.75
2022-07-27T03:36:55.684Z,33.75
2022-07-27T03:37:53.036Z,33.75
2022-07-27T03:38:53.003Z,33.75
2022-07-27T03:39:52.976Z,39.38
2022-07-27T03:40:53.633Z,39.38
2022-07-27T03:41:52.903Z,45.00
2022-07-27T03:47:34.821Z,61.88
2022-07-27T03:48:27.645Z,61.88
2022-07-27T03:49:27.682Z,61.88
2022-07-27T03:50:27.579Z,67.50
2022-07-27T03:51:27.542Z,67.50
2022-07-27T03:52:27.516Z,73.13
2022-07-27T03:53:27.714Z,73.13
2022-07-27T03:54:27.454Z,73.13
2022-07-27T03:55:27.420Z,78.75
2022-07-27T03:56:27.391Z,78.75
2022-07-27T03:57:27.368Z,78.75
2022-07-27T03:58:27.327Z,84.38
2022-07-27T03:59:27.697Z,84.38
2022-07-27T04:00:27.269Z,90.00
2022-07-27T04:01:27.304Z,90.00
2022-07-27T04:02:27.255Z,90.00
2022-07-27T04:03:27.167Z,90.00
2022-07-27T04:04:27.145Z,90.00
2022-07-27T04:05:29.944Z,101.25
2022-07-27T04:06:27.074Z,95.63
2022-07-27T04:07:27.046Z,101.25
2022-07-27T04:08:27.008Z,106.88
2022-07-27T04:09:27.805Z,112.50
2022-07-27T04:10:31.595Z,112.50
2022-07-27T04:11:29.651Z,118.13
2022-07-27T04:12:26.945Z,123.75
2022-07-27T04:13:26.968Z,129.38
2022-07-27T04:14:26.869Z,135.00
2022-07-27T04:15:26.821Z,135.00
2022-07-27T04:16:26.867Z,140.63
2022-07-27T04:17:54.144Z,146.25
2022-07-27T04:18:26.699Z,146.25
2022-07-27T04:19:26.727Z,151.88
2022-07-27T04:20:26.645Z,157.50
2022-07-27T04:21:27.523Z,157.50
2022-07-27T04:22:26.577Z,157.50
2022-07-27T04:23:26.546Z,163.13
2022-07-27T04:24:26.566Z,168.75
2022-07-27T04:25:26.486Z,163.13
2022-07-27T04:26:26.451Z,157.50
2022-07-27T04:27:26.417Z,163.13
2022-07-27T04:28:26.389Z,168.75
2022-07-27T04:29:26.421Z,174.38
2022-07-27T04:30:26.514Z,185.63
2022-07-27T04:31:26.299Z,202.50
2022-07-27T04:32:26.274Z,202.50
2022-07-27T04:33:26.234Z,230.63
2022-07-27T04:34:26.220Z,281.25
2022-07-27T04:35:26.851Z,258.75
2022-07-27T04:36:26.385Z,236.25
2022-07-27T04:37:26.107Z,241.88
2022-07-27T04:38:26.078Z,247.50
2022-07-27T04:39:26.048Z,264.38
2022-07-27T04:40:26.812Z,275.63
2022-07-27T04:41:30.339Z,292.50
2022-07-27T04:42:26.010Z,315.00
2022-07-27T04:43:25.924Z,281.25
2022-07-27T04:44:25.899Z,270.00
2022-07-27T04:45:25.867Z,270.00
2022-07-27T04:46:25.896Z,264.38
2022-07-27T04:47:25.854Z,258.75
2022-07-27T04:48:26.821Z,247.50
2022-07-27T04:49:25.808Z,241.88
2022-07-27T04:50:25.713Z,208.13
2022-07-27T04:51:28.931Z,202.50
2022-07-27T04:52:26.894Z,196.88
2022-07-27T04:53:25.712Z,196.88
2022-07-27T04:54:25.586Z,185.63
2022-07-27T04:55:25.621Z,168.75
2022-07-27T04:56:25.528Z,163.13
2022-07-27T04:57:25.497Z,157.50
2022-07-27T04:58:25.468Z,157.50
2022-07-27T04:59:25.509Z,157.50
2022-07-27T05:00:25.407Z,157.50
2022-07-27T05:01:25.553Z,157.50
2022-07-27T05:02:25.343Z,157.50
2022-07-27T05:03:25.337Z,157.50
2022-07-27T05:04:25.379Z,157.50
2022-07-27T05:05:25.263Z,163.13
2022-07-27T05:06:25.239Z,163.13
2022-07-27T05:07:25.197Z,168.75
2022-07-27T05:08:25.169Z,174.38
2022-07-27T05:09:25.129Z,185.63
2022-07-27T05:10:25.179Z,196.88
2022-07-27T05:11:25.067Z,241.88
2022-07-27T05:12:25.038Z,270.00
2022-07-27T05:13:25.067Z,196.88
2022-07-27T05:14:24.979Z,202.50
2022-07-27T05:15:24.980Z,225.00
2022-07-27T05:16:28.520Z,208.13
2022-07-27T05:17:24.888Z,185.63
2022-07-27T05:18:24.856Z,185.63
2022-07-27T05:19:24.828Z,174.38
2022-07-27T05:20:24.797Z,180.00
2022-07-27T05:21:24.814Z,185.63
2022-07-27T05:22:24.740Z,191.25
2022-07-27T05:23:24.762Z,202.50
2022-07-27T05:24:24.680Z,241.88
2022-07-27T05:25:24.641Z,320.63
2022-07-27T05:26:24.666Z,331.88
2022-07-27T05:27:24.639Z,343.13
2022-07-27T05:28:24.563Z,388.13
2022-07-27T05:29:24.532Z,360.00
2022-07-27T05:30:24.493Z,337.50
2022-07-27T05:31:25.415Z,405.00
2022-07-27T05:32:24.479Z,545.63
2022-07-27T05:33:24.395Z,337.50
2022-07-27T05:34:24.371Z,303.75
2022-07-27T05:35:24.337Z,371.25
2022-07-27T05:36:24.304Z,320.63
2022-07-27T05:37:24.332Z,247.50
2022-07-27T05:38:24.302Z,253.13
2022-07-27T05:39:24.213Z,253.13
2022-07-27T05:40:24.187Z,253.13
2022-07-27T05:41:24.180Z,286.88
2022-07-27T05:42:24.125Z,320.63
2022-07-27T05:43:24.145Z,309.38
2022-07-27T05:44:24.724Z,298.13
2022-07-27T05:45:24.089Z,270.00
2022-07-27T05:46:24.935Z,225.00
2022-07-27T05:47:23.998Z,241.88
2022-07-27T05:48:23.944Z,202.50
2022-07-27T05:49:24.059Z,196.88
2022-07-27T05:50:23.889Z,196.88
2022-07-27T05:51:23.854Z,202.50
2022-07-27T05:52:23.825Z,202.50
2022-07-27T05:53:23.793Z,208.13
2022-07-27T05:54:23.845Z,219.38
2022-07-27T05:55:23.735Z,219.38
2022-07-27T05:56:23.702Z,230.63
2022-07-27T05:57:23.679Z,225.00
2022-07-27T05:58:24.335Z,225.00
2022-07-27T05:59:23.615Z,219.38
2022-07-27T06:00:23.637Z,225.00
2022-07-27T06:01:23.637Z,225.00
2022-07-27T06:02:23.538Z,230.63
2022-07-27T06:03:23.558Z,236.25
2022-07-27T06:04:23.466Z,247.50
2022-07-27T06:05:24.416Z,258.75
2022-07-27T06:06:23.423Z,264.38
2022-07-27T06:07:23.385Z,264.38
2022-07-27T06:08:23.348Z,270.00
2022-07-27T06:09:23.318Z,275.63
2022-07-27T06:10:23.303Z,286.88
2022-07-27T06:11:23.304Z,292.50
2022-07-27T06:12:23.244Z,298.13
2022-07-27T06:13:28.056Z,303.75
2022-07-27T06:14:23.167Z,303.75
2022-07-27T06:15:23.139Z,298.13
2022-07-27T06:16:23.211Z,303.75
2022-07-27T06:17:23.076Z,309.38
2022-07-27T06:18:23.049Z,286.88
2022-07-27T06:19:23.018Z,286.88
2022-07-27T06:20:22.987Z,298.13
2022-07-27T06:21:23.042Z,309.38
2022-07-27T06:22:22.928Z,326.25
2022-07-27T06:23:22.902Z,365.63
2022-07-27T06:24:22.872Z,343.13
2022-07-27T06:25:22.835Z,337.50
2022-07-27T06:26:22.834Z,360.00
2022-07-27T06:27:25.997Z,371.25
2022-07-27T06:28:22.755Z,376.88
2022-07-27T06:29:22.720Z,388.13
2022-07-27T06:30:22.697Z,405.00
2022-07-27T06:31:22.698Z,421.88
2022-07-27T06:32:22.691Z,438.75
2022-07-27T06:33:22.659Z,455.63
2022-07-27T06:34:22.583Z,489.38
2022-07-27T06:35:22.550Z,500.63
2022-07-27T06:36:22.525Z,511.88
2022-07-27T06:37:22.550Z,534.38
2022-07-27T06:38:22.518Z,545.63
2022-07-27T06:39:23.242Z,556.88
2022-07-27T06:40:23.774Z,573.75
2022-07-27T06:41:22.372Z,585.00
2022-07-27T06:42:22.393Z,596.25
2022-07-27T06:43:22.327Z,596.25
2022-07-27T06:44:22.288Z,596.25
2022-07-27T06:45:22.259Z,596.25
2022-07-27T06:46:22.269Z,596.25
2022-07-27T06:47:25.932Z,590.63
2022-07-27T06:48:22.230Z,590.63
2022-07-27T06:49:22.186Z,579.38
2022-07-27T06:50:22.131Z,573.75
2022-07-27T06:51:22.091Z,568.13
2022-07-27T06:52:22.096Z,562.50
2022-07-27T06:53:22.082Z,562.50
2022-07-27T06:54:22.005Z,556.88
2022-07-27T06:55:21.978Z,556.88
2022-07-27T06:56:21.957Z,562.50
2022-07-27T06:57:21.924Z,562.50
2022-07-27T06:58:21.960Z,568.13
2022-07-27T06:59:21.867Z,562.50
2022-07-27T07:00:21.924Z,568.13
2022-07-27T07:01:21.968Z,573.75
2022-07-27T07:02:21.786Z,579.38
2022-07-27T07:03:21.810Z,585.00
2022-07-27T07:04:24.713Z,590.63
2022-07-27T07:05:21.803Z,607.50
2022-07-27T07:06:21.669Z,618.75
2022-07-27T07:07:21.645Z,635.63
2022-07-27T07:08:21.619Z,652.50
2022-07-27T07:09:21.638Z,669.38
2022-07-27T07:10:21.764Z,680.63
2022-07-27T07:11:21.539Z,703.13
2022-07-27T07:12:21.509Z,708.75
2022-07-27T07:13:21.482Z,714.38
2022-07-27T07:14:21.706Z,714.38
2022-07-27T07:15:21.430Z,720.00
2022-07-27T07:16:21.462Z,714.38
2022-07-27T07:17:21.373Z,708.75
2022-07-27T07:18:21.343Z,697.50
2022-07-27T07:19:22.749Z,691.88
2022-07-27T07:20:21.353Z,686.25
2022-07-27T07:21:21.271Z,686.25
2022-07-27T07:22:21.861Z,691.88
2022-07-27T07:23:21.246Z,703.13
2022-07-27T07:24:21.189Z,725.63
2022-07-27T07:25:21.250Z,720.00
2022-07-27T07:26:21.194Z,720.00
2022-07-27T07:27:21.110Z,708.75
2022-07-27T07:28:21.083Z,691.88
2022-07-27T07:29:21.061Z,680.63
2022-07-27T07:30:21.032Z,675.00
2022-07-27T07:31:21.127Z,686.25
2022-07-27T07:32:20.981Z,703.13
2022-07-27T07:33:20.988Z,725.63
2022-07-27T07:34:20.951Z,720.00
2022-07-27T07:35:20.910Z,748.13
2022-07-27T07:36:20.878Z,753.75
2022-07-27T07:37:20.903Z,776.25
2022-07-27T07:38:20.833Z,798.75
2022-07-27T07:39:21.758Z,793.13
2022-07-27T07:41:20.749Z,736.88
2022-07-27T07:42:22.199Z,736.88
2022-07-27T07:43:20.735Z,731.25
2022-07-27T07:44:20.686Z,720.00
2022-07-27T07:45:20.651Z,691.88
2022-07-27T07:46:20.660Z,669.38
2022-07-27T07:47:20.601Z,669.38
2022-07-27T07:48:23.247Z,646.88
2022-07-27T07:49:37.698Z,618.75
2022-07-27T07:50:20.521Z,590.63
2022-07-27T07:51:20.496Z,551.25
2022-07-27T07:52:20.480Z,517.50
2022-07-27T07:53:20.454Z,523.13
2022-07-27T07:54:33.157Z,562.50
2022-07-27T07:55:20.400Z,528.75
2022-07-27T07:56:20.370Z,455.63
2022-07-27T07:57:20.345Z,421.88
2022-07-27T07:58:20.330Z,438.75
2022-07-27T07:59:20.298Z,489.38
2022-07-27T08:01:53.121Z,528.75
2022-07-27T08:02:51.871Z,579.38
2022-07-27T08:03:51.789Z,573.75
2022-07-27T08:04:51.769Z,534.38
2022-07-27T08:05:51.808Z,500.63
2022-07-27T08:06:51.710Z,483.75
2022-07-27T08:07:51.755Z,483.75
2022-07-27T08:08:51.658Z,483.75
2022-07-27T08:09:51.636Z,489.38
2022-07-27T08:10:51.608Z,517.50
2022-07-27T08:11:51.580Z,545.63
2022-07-27T08:12:51.588Z,540.00
2022-07-27T08:13:51.621Z,551.25
2022-07-27T08:14:51.505Z,596.25
2022-07-27T08:15:52.608Z,641.25
2022-07-27T08:16:51.451Z,669.38
2022-07-27T08:17:51.429Z,675.00
2022-07-27T08:18:51.399Z,736.88
2022-07-27T08:19:51.520Z,765.00
2022-07-27T08:20:51.440Z,725.63
2022-07-27T08:21:51.337Z,658.13
2022-07-27T08:22:51.300Z,613.13
2022-07-27T08:23:51.322Z,562.50
2022-07-27T08:24:51.249Z,551.25
2022-07-27T08:25:51.320Z,579.38
2022-07-27T08:26:51.198Z,618.75
2022-07-27T08:27:51.174Z,641.25
2022-07-27T08:28:51.152Z,652.50
2022-07-27T08:29:51.792Z,675.00
2022-07-27T08:30:51.279Z,680.63
2022-07-27T08:31:53.393Z,658.13
2022-07-27T08:32:51.093Z,624.38
2022-07-27T08:33:51.027Z,624.38
2022-07-27T08:34:50.993Z,675.00
2022-07-27T08:35:51.070Z,714.38
2022-07-27T08:36:50.944Z,781.88
2022-07-27T08:37:50.920Z,804.38
2022-07-27T08:38:50.890Z,826.88
2022-07-27T08:40:38.112Z,810.00
2022-07-27T08:40:50.842Z,793.13
2022-07-27T08:41:50.908Z,731.25
2022-07-27T08:42:50.798Z,703.13
2022-07-27T08:43:50.768Z,596.25
2022-07-27T08:44:50.761Z,523.13
2022-07-27T08:45:50.722Z,523.13
2022-07-27T08:46:50.769Z,506.25
2022-07-27T08:47:50.734Z,450.00
2022-07-27T08:48:50.702Z,382.50
2022-07-27T08:49:50.650Z,343.13
2022-07-27T08:50:50.599Z,337.50
2022-07-27T08:51:50.567Z,388.13
2022-07-27T08:52:50.535Z,483.75
2022-07-27T08:53:53.638Z,579.38
2022-07-27T08:54:50.492Z,680.63
2022-07-27T08:55:50.468Z,731.25
2022-07-27T08:56:50.451Z,753.75
2022-07-27T08:57:50.413Z,759.38
2022-07-27T08:58:50.386Z,708.75
2022-07-27T08:59:50.417Z,646.88
2022-07-27T09:00:50.487Z,601.88
2022-07-27T09:01:50.348Z,573.75
2022-07-27T09:02:50.351Z,556.88
2022-07-27T09:03:50.257Z,607.50
2022-07-27T09:04:50.284Z,686.25
2022-07-27T09:05:50.233Z,781.88
2022-07-27T09:06:53.035Z,826.88
2022-07-27T09:07:50.156Z,877.50
2022-07-27T09:08:53.374Z,888.75
2022-07-27T09:09:50.160Z,866.25
2022-07-27T09:10:50.309Z,877.50
2022-07-27T09:11:50.063Z,911.25
2022-07-27T09:12:50.061Z,871.88
2022-07-27T09:13:50.994Z,804.38
2022-07-27T09:14:53.199Z,753.75
2022-07-27T09:16:16.327Z,686.25
2022-07-27T09:17:50.386Z,551.25
2022-07-27T09:18:49.906Z,472.50
2022-07-27T09:19:49.886Z,438.75
2022-07-27T09:20:49.893Z,489.38
2022-07-27T09:21:49.825Z,545.63
2022-07-27T09:22:49.821Z,601.88
2022-07-27T09:23:49.760Z,652.50
2022-07-27T09:24:49.738Z,680.63
2022-07-27T09:26:03.630Z,714.38
2022-07-27T09:26:50.528Z,731.25
2022-07-27T09:27:49.666Z,742.50
2022-07-27T09:28:49.669Z,770.63
2022-07-27T09:29:49.625Z,826.88
2022-07-27T09:30:50.418Z,877.50
2022-07-27T09:31:49.743Z,933.75
2022-07-27T09:32:52.797Z,928.13
2022-07-27T09:33:49.534Z,905.63
2022-07-27T09:34:49.497Z,894.38
2022-07-27T09:35:50.017Z,911.25
2022-07-27T09:36:49.444Z,916.88
2022-07-27T09:37:49.486Z,883.13
2022-07-27T09:38:53.603Z,849.38
2022-07-27T09:39:49.374Z,866.25
2022-07-27T09:40:49.355Z,843.75
2022-07-27T09:41:49.374Z,781.88
2022-07-27T09:43:06.689Z,714.38
2022-07-27T09:44:29.709Z,675.00
2022-07-27T09:44:53.587Z,641.25
2022-07-27T09:45:51.470Z,579.38
2022-07-27T09:46:49.262Z,511.88
2022-07-27T09:47:49.179Z,466.88
2022-07-27T09:48:49.293Z,450.00
2022-07-27T09:49:49.136Z,450.00
2022-07-27T09:51:01.751Z,466.88
2022-07-27T09:52:04.402Z,478.13
2022-07-27T09:52:49.064Z,450.00
2022-07-27T09:53:49.059Z,438.75
2022-07-27T09:54:49.202Z,478.13
2022-07-27T09:55:48.992Z,568.13
2022-07-27T09:56:48.968Z,641.25
2022-07-27T09:57:48.944Z,646.88
2022-07-27T09:58:48.958Z,630.00
2022-07-27T09:59:48.899Z,624.38
2022-07-27T10:00:48.936Z,630.00
2022-07-27T10:01:54.332Z,618.75
2022-07-27T10:02:48.825Z,618.75
2022-07-27T10:03:48.819Z,641.25
2022-07-27T10:04:48.876Z,686.25
2022-07-27T10:05:48.804Z,731.25
2022-07-27T10:07:02.407Z,770.63
2022-07-27T10:07:48.704Z,815.63
2022-07-27T10:08:48.689Z,843.75
2022-07-27T10:09:49.505Z,888.75
2022-07-27T10:10:48.677Z,916.88
2022-07-27T10:11:48.636Z,945.00
2022-07-27T10:12:53.959Z,961.88
2022-07-27T10:13:48.551Z,973.13
2022-07-27T10:14:48.583Z,978.75
2022-07-27T10:15:48.623Z,990.00
2022-07-27T10:16:48.482Z,1001.25
2022-07-27T10:17:48.481Z,995.63
2022-07-27T10:18:50.747Z,973.13
2022-07-27T10:19:48.461Z,956.25
2022-07-27T10:20:48.408Z,945.00
2022-07-27T10:21:48.376Z,922.50
2022-07-27T10:22:48.404Z,900.00
2022-07-27T10:23:49.032Z,905.63
2022-07-27T10:24:53.062Z,922.50
2022-07-27T10:25:48.270Z,933.75
2022-07-27T10:26:48.285Z,950.63
2022-07-27T10:27:48.309Z,945.00
2022-07-27T10:28:48.204Z,922.50
2022-07-27T10:29:48.239Z,922.50
2022-07-27T10:30:54.743Z,916.88
2022-07-27T10:31:48.127Z,900.00
2022-07-27T10:32:48.138Z,894.38
2022-07-27T10:33:48.086Z,877.50
2022-07-27T10:34:48.909Z,860.63
2022-07-27T10:35:48.043Z,855.00
2022-07-27T10:36:53.910Z,855.00
2022-07-27T10:37:47.992Z,860.63
2022-07-27T10:38:47.975Z,849.38
2022-07-27T10:39:48.017Z,843.75
2022-07-27T10:40:48.542Z,871.88
2022-07-27T10:41:47.895Z,922.50
2022-07-27T10:42:53.637Z,928.13
2022-07-27T10:43:47.914Z,922.50
2022-07-27T10:44:47.819Z,911.25
2022-07-27T10:45:55.135Z,905.63
2022-07-27T10:46:47.810Z,888.75
2022-07-27T10:47:47.757Z,826.88
2022-07-27T10:48:49.219Z,759.38
2022-07-27T10:49:47.756Z,686.25
2022-07-27T10:50:47.677Z,624.38
2022-07-27T10:51:47.658Z,568.13
2022-07-27T10:52:47.633Z,540.00
2022-07-27T10:56:23.484Z,596.25
2022-07-27T10:57:19.670Z,646.88
2022-07-27T10:58:19.109Z,691.88
2022-07-27T10:59:19.089Z,731.25
2022-07-27T11:00:20.886Z,798.75
2022-07-27T11:01:23.757Z,866.25
2022-07-27T11:02:19.008Z,922.50
2022-07-27T11:03:18.993Z,984.38
2022-07-27T11:04:19.019Z,916.88
2022-07-27T11:05:57.979Z,883.13
2022-07-27T11:07:04.665Z,877.50
2022-07-27T11:07:24.802Z,894.38
2022-07-27T11:08:52.252Z,894.38
2022-07-27T11:10:02.269Z,888.75
2022-07-27T11:10:18.816Z,900.00
2022-07-27T11:11:18.789Z,900.00
2022-07-27T11:12:23.339Z,877.50
2022-07-27T11:13:18.742Z,849.38
2022-07-27T11:14:19.245Z,826.88
2022-07-27T11:15:18.708Z,821.25
2022-07-27T11:16:24.372Z,843.75
2022-07-27T11:18:18.780Z,871.88
2022-07-27T11:19:18.694Z,798.75
2022-07-27T11:20:18.578Z,736.88
2022-07-27T11:21:25.527Z,663.75
2022-07-27T11:22:28.685Z,551.25
2022-07-27T11:24:18.573Z,466.88
2022-07-27T11:25:18.467Z,506.25
2022-07-27T11:26:18.448Z,585.00
2022-07-27T11:27:22.190Z,669.38
2022-07-27T11:28:18.402Z,708.75
2022-07-27T11:29:18.380Z,686.25
2022-07-27T11:30:18.544Z,618.75
2022-07-27T11:31:32.719Z,562.50
2022-07-27T11:32:18.394Z,534.38
2022-07-27T11:33:18.281Z,534.38
2022-07-27T11:34:18.253Z,551.25
2022-07-27T11:35:20.186Z,534.38
2022-07-27T11:36:18.258Z,517.50
2022-07-27T11:37:18.182Z,528.75
2022-07-27T11:38:18.183Z,579.38
2022-07-27T11:39:40.354Z,641.25
2022-07-27T11:40:53.657Z,697.50
2022-07-27T11:41:29.184Z,765.00
2022-07-27T11:42:21.113Z,832.50
2022-07-27T11:43:18.053Z,900.00
2022-07-27T11:44:18.017Z,911.25
2022-07-27T11:45:18.051Z,905.63
2022-07-27T11:46:18.222Z,883.13
2022-07-27T11:47:17.944Z,843.75
2022-07-27T11:48:17.934Z,770.63
2022-07-27T11:49:18.097Z,697.50
2022-07-27T11:50:17.876Z,641.25
2022-07-27T11:51:17.908Z,618.75
2022-07-27T11:52:18.028Z,652.50
2022-07-27T11:53:17.842Z,708.75
2022-07-27T11:54:17.776Z,742.50
2022-07-27T11:55:17.763Z,787.50
2022-07-27T11:56:17.889Z,826.88
2022-07-27T11:57:17.713Z,866.25
2022-07-27T11:58:17.686Z,860.63
2022-07-27T11:59:17.943Z,832.50
2022-07-27T12:00:17.678Z,781.88
2022-07-27T12:01:17.675Z,753.75
2022-07-27T12:02:17.803Z,742.50
2022-07-27T12:03:17.592Z,725.63
2022-07-27T12:04:17.583Z,725.63
2022-07-27T12:05:17.544Z,731.25
2022-07-27T12:06:17.501Z,748.13
2022-07-27T12:07:17.524Z,765.00
2022-07-27T12:08:17.453Z,736.88
2022-07-27T12:09:17.429Z,731.25
2022-07-27T12:10:17.405Z,731.25
2022-07-27T12:11:17.385Z,753.75
2022-07-27T12:12:17.418Z,759.38
2022-07-27T12:13:17.336Z,725.63
2022-07-27T12:14:17.317Z,686.25
2022-07-27T12:15:45.860Z,658.13
2022-07-27T12:16:18.567Z,607.50
2022-07-27T12:17:17.307Z,613.13
2022-07-27T12:18:17.229Z,669.38
2022-07-27T12:19:17.208Z,736.88
2022-07-27T12:20:17.183Z,731.25
2022-07-27T12:21:17.205Z,669.38
2022-07-27T12:22:17.132Z,601.88
2022-07-27T12:23:17.108Z,517.50
2022-07-27T12:24:17.145Z,523.13
2022-07-27T12:25:17.307Z,551.25
2022-07-27T12:26:17.044Z,556.88
2022-07-27T12:27:17.012Z,545.63
2022-07-27T12:28:16.989Z,517.50
2022-07-27T12:29:17.258Z,523.13
2022-07-27T12:30:16.944Z,489.38
2022-07-27T12:31:17.026Z,466.88
2022-07-27T12:32:16.958Z,444.38
2022-07-27T12:33:16.874Z,444.38
2022-07-27T12:34:16.997Z,444.38
2022-07-27T12:35:16.831Z,478.13
2022-07-27T12:36:16.825Z,517.50
2022-07-27T12:37:16.778Z,596.25
2022-07-27T12:38:16.761Z,680.63
2022-07-27T12:39:16.735Z,736.88
2022-07-27T12:40:16.763Z,765.00
2022-07-27T12:41:16.686Z,798.75
2022-07-27T12:42:16.665Z,787.50
2022-07-27T12:43:16.641Z,776.25
2022-07-27T12:44:16.614Z,753.75
2022-07-27T12:45:16.644Z,736.88
2022-07-27T12:46:16.608Z,703.13
2022-07-27T12:47:16.542Z,675.00
2022-07-27T12:48:16.523Z,675.00
2022-07-27T12:49:17.073Z,686.25
2022-07-27T12:50:16.526Z,691.88
2022-07-27T12:51:16.502Z,663.75
2022-07-27T12:52:16.429Z,641.25
2022-07-27T12:53:16.407Z,618.75
2022-07-27T12:54:16.381Z,596.25
2022-07-27T12:55:16.358Z,568.13